sensor_id;sensor_type;location;lat;lon;timestamp;temperature;humidity
54485;DHT22;45006;56.958;24.166;2023-03-01T00:01:19;22.50;75.60
54485;DHT22;45006;56.958;24.166;2023-03-01T00:03:47;22.40;75.80
54485;DHT22;45006;56.958;24.166;2023-03-01T00:06:14;22.50;75.90
54485;DHT22;45006;56.958;24.166;2023-03-01T00:08:41;22.50;76.20
54485;DHT22;45006;56.958;24.166;2023-03-01T00:11:17;22.50;76.60
54485;DHT22;45006;56.958;24.166;2023-03-01T00:13:46;22.50;77.00
54485;DHT22;45006;56.958;24.166;2023-03-01T00:16:16;22.50;77.10
54485;DHT22;45006;56.958;24.166;2023-03-01T00:18:43;22.50;77.20
54485;DHT22;45006;56.958;24.166;2023-03-01T00:21:11;22.50;77.80
54485;DHT22;45006;56.958;24.166;2023-03-01T00:23:38;22.50;77.80
54485;DHT22;45006;56.958;24.166;2023-03-01T00:26:11;22.50;77.80
54485;DHT22;45006;56.958;24.166;2023-03-01T00:28:39;22.50;77.80
54485;DHT22;45006;56.958;24.166;2023-03-01T00:31:11;22.50;77.90
54485;DHT22;45006;56.958;24.166;2023-03-01T00:33:39;22.50;77.60
54485;DHT22;45006;56.958;24.166;2023-03-01T00:36:08;22.50;77.40
54485;DHT22;45006;56.958;24.166;2023-03-01T00:38:41;22.50;77.40
54485;DHT22;45006;56.958;24.166;2023-03-01T00:41:15;22.50;77.50
54485;DHT22;45006;56.958;24.166;2023-03-01T00:43:44;22.50;77.50
54485;DHT22;45006;56.958;24.166;2023-03-01T00:46:23;22.50;76.10
54485;DHT22;45006;56.958;24.166;2023-03-01T00:48:50;22.50;75.90
54485;DHT22;45006;56.958;24.166;2023-03-01T00:51:23;22.50;75.80
54485;DHT22;45006;56.958;24.166;2023-03-01T00:53:52;22.50;75.80
54485;DHT22;45006;56.958;24.166;2023-03-01T00:56:19;22.50;75.50
54485;DHT22;45006;56.958;24.166;2023-03-01T00:58:47;22.50;76.00
54485;DHT22;45006;56.958;24.166;2023-03-01T01:01:20;22.50;76.80
54485;DHT22;45006;56.958;24.166;2023-03-01T01:04:22;22.50;76.20
54485;DHT22;45006;56.958;24.166;2023-03-01T01:06:46;22.50;76.30
54485;DHT22;45006;56.958;24.166;2023-03-01T01:09:15;22.50;76.70
54485;DHT22;45006;56.958;24.166;2023-03-01T01:11:48;22.50;77.20
54485;DHT22;45006;56.958;24.166;2023-03-01T01:14:17;22.50;77.70
54485;DHT22;45006;56.958;24.166;2023-03-01T01:16:44;22.50;77.70
54485;DHT22;45006;56.958;24.166;2023-03-01T01:19:11;22.50;78.20
54485;DHT22;45006;56.958;24.166;2023-03-01T01:21:40;22.50;78.70
54485;DHT22;45006;56.958;24.166;2023-03-01T01:24:10;22.50;78.90
54485;DHT22;45006;56.958;24.166;2023-03-01T01:26:37;22.50;79.80
54485;DHT22;45006;56.958;24.166;2023-03-01T01:29:04;22.50;79.10
54485;DHT22;45006;56.958;24.166;2023-03-01T01:31:32;22.50;78.70
54485;DHT22;45006;56.958;24.166;2023-03-01T01:34:01;22.50;79.00
54485;DHT22;45006;56.958;24.166;2023-03-01T01:36:29;22.50;79.10
54485;DHT22;45006;56.958;24.166;2023-03-01T01:38:56;22.50;79.10
54485;DHT22;45006;56.958;24.166;2023-03-01T01:41:27;22.60;79.40
54485;DHT22;45006;56.958;24.166;2023-03-01T01:44:14;22.50;79.30
54485;DHT22;45006;56.958;24.166;2023-03-01T01:52:13;22.50;79.00
54485;DHT22;45006;56.958;24.166;2023-03-01T01:54:42;22.60;79.80
54485;DHT22;45006;56.958;24.166;2023-03-01T01:57:18;22.50;80.00
54485;DHT22;45006;56.958;24.166;2023-03-01T01:59:52;22.50;80.00
54485;DHT22;45006;56.958;24.166;2023-03-01T02:02:20;22.50;80.10
54485;DHT22;45006;56.958;24.166;2023-03-01T02:04:50;22.50;80.00
54485;DHT22;45006;56.958;24.166;2023-03-01T02:07:21;22.60;80.10
54485;DHT22;45006;56.958;24.166;2023-03-01T02:09:50;22.60;80.40
54485;DHT22;45006;56.958;24.166;2023-03-01T02:12:23;22.60;80.60
54485;DHT22;45006;56.958;24.166;2023-03-01T02:14:50;22.60;80.30
54485;DHT22;45006;56.958;24.166;2023-03-01T02:17:18;22.60;80.60
54485;DHT22;45006;56.958;24.166;2023-03-01T02:22:36;22.60;79.50
54485;DHT22;45006;56.958;24.166;2023-03-01T02:28:05;22.60;79.70
54485;DHT22;45006;56.958;24.166;2023-03-01T02:30:35;22.60;79.80
54485;DHT22;45006;56.958;24.166;2023-03-01T02:33:03;22.60;79.80
54485;DHT22;45006;56.958;24.166;2023-03-01T02:35:37;22.60;79.70
54485;DHT22;45006;56.958;24.166;2023-03-01T02:38:07;22.60;79.90
54485;DHT22;45006;56.958;24.166;2023-03-01T02:40:38;22.60;79.50
54485;DHT22;45006;56.958;24.166;2023-03-01T02:43:08;22.60;79.50
54485;DHT22;45006;56.958;24.166;2023-03-01T02:45:36;22.60;78.90
54485;DHT22;45006;56.958;24.166;2023-03-01T02:48:04;22.60;79.40
54485;DHT22;45006;56.958;24.166;2023-03-01T02:53:08;22.60;79.60
54485;DHT22;45006;56.958;24.166;2023-03-01T02:55:37;22.60;79.40
54485;DHT22;45006;56.958;24.166;2023-03-01T02:58:05;22.50;79.50
54485;DHT22;45006;56.958;24.166;2023-03-01T03:00:38;22.60;79.40
54485;DHT22;45006;56.958;24.166;2023-03-01T03:03:07;22.50;79.60
54485;DHT22;45006;56.958;24.166;2023-03-01T03:05:34;22.50;79.40
54485;DHT22;45006;56.958;24.166;2023-03-01T03:08:03;22.60;79.60
54485;DHT22;45006;56.958;24.166;2023-03-01T03:10:33;22.60;79.60
54485;DHT22;45006;56.958;24.166;2023-03-01T03:13:05;22.60;80.10
54485;DHT22;45006;56.958;24.166;2023-03-01T03:15:33;22.60;80.10
54485;DHT22;45006;56.958;24.166;2023-03-01T03:18:07;22.60;80.30
54485;DHT22;45006;56.958;24.166;2023-03-01T03:20:35;22.60;80.40
54485;DHT22;45006;56.958;24.166;2023-03-01T03:23:02;22.50;80.20
54485;DHT22;45006;56.958;24.166;2023-03-01T03:25:32;22.50;80.20
54485;DHT22;45006;56.958;24.166;2023-03-01T03:27:59;22.60;80.50
54485;DHT22;45006;56.958;24.166;2023-03-01T03:30:29;22.60;80.90
54485;DHT22;45006;56.958;24.166;2023-03-01T03:32:57;22.60;81.10
54485;DHT22;45006;56.958;24.166;2023-03-01T03:35:30;22.50;80.60
54485;DHT22;45006;56.958;24.166;2023-03-01T03:38:04;22.60;80.30
54485;DHT22;45006;56.958;24.166;2023-03-01T03:40:47;22.60;80.30
54485;DHT22;45006;56.958;24.166;2023-03-01T03:43:20;22.60;80.00
54485;DHT22;45006;56.958;24.166;2023-03-01T03:45:49;22.60;80.00
54485;DHT22;45006;56.958;24.166;2023-03-01T03:48:17;22.60;80.00
54485;DHT22;45006;56.958;24.166;2023-03-01T03:50:52;22.60;79.90
54485;DHT22;45006;56.958;24.166;2023-03-01T03:53:20;22.60;79.80
54485;DHT22;45006;56.958;24.166;2023-03-01T03:55:49;22.60;79.80
54485;DHT22;45006;56.958;24.166;2023-03-01T03:58:16;22.60;79.80
54485;DHT22;45006;56.958;24.166;2023-03-01T04:00:48;22.50;79.70
54485;DHT22;45006;56.958;24.166;2023-03-01T04:03:17;22.60;79.80
54485;DHT22;45006;56.958;24.166;2023-03-01T04:05:47;22.50;79.60
54485;DHT22;45006;56.958;24.166;2023-03-01T04:08:14;22.60;80.00
54485;DHT22;45006;56.958;24.166;2023-03-01T04:10:46;22.60;79.30
54485;DHT22;45006;56.958;24.166;2023-03-01T04:13:20;22.60;79.40
54485;DHT22;45006;56.958;24.166;2023-03-01T04:15:50;22.60;79.50
54485;DHT22;45006;56.958;24.166;2023-03-01T04:18:20;22.60;79.30
54485;DHT22;45006;56.958;24.166;2023-03-01T04:20:47;22.50;79.20
54485;DHT22;45006;56.958;24.166;2023-03-01T04:23:17;22.50;79.10
54485;DHT22;45006;56.958;24.166;2023-03-01T04:25:56;22.60;79.20
54485;DHT22;45006;56.958;24.166;2023-03-01T04:28:35;22.60;78.70
54485;DHT22;45006;56.958;24.166;2023-03-01T04:31:05;22.60;78.80
54485;DHT22;45006;56.958;24.166;2023-03-01T04:33:45;22.50;78.80
54485;DHT22;45006;56.958;24.166;2023-03-01T04:36:14;22.60;78.70
54485;DHT22;45006;56.958;24.166;2023-03-01T04:38:43;22.60;78.70
54485;DHT22;45006;56.958;24.166;2023-03-01T04:41:16;22.50;78.80
54485;DHT22;45006;56.958;24.166;2023-03-01T04:43:43;22.50;78.20
54485;DHT22;45006;56.958;24.166;2023-03-01T04:46:13;22.50;78.50
54485;DHT22;45006;56.958;24.166;2023-03-01T04:48:43;22.50;78.40
54485;DHT22;45006;56.958;24.166;2023-03-01T04:51:10;22.50;78.30
54485;DHT22;45006;56.958;24.166;2023-03-01T04:53:41;22.50;78.50
54485;DHT22;45006;56.958;24.166;2023-03-01T04:56:10;22.50;78.40
54485;DHT22;45006;56.958;24.166;2023-03-01T04:58:37;22.50;78.70
54485;DHT22;45006;56.958;24.166;2023-03-01T05:01:18;22.50;78.20
54485;DHT22;45006;56.958;24.166;2023-03-01T05:03:48;22.50;78.30
54485;DHT22;45006;56.958;24.166;2023-03-01T05:06:19;22.50;78.00
54485;DHT22;45006;56.958;24.166;2023-03-01T05:08:46;22.50;77.90
54485;DHT22;45006;56.958;24.166;2023-03-01T05:11:13;22.50;78.00
54485;DHT22;45006;56.958;24.166;2023-03-01T05:13:40;22.50;78.10
54485;DHT22;45006;56.958;24.166;2023-03-01T05:16:08;22.50;78.10
54485;DHT22;45006;56.958;24.166;2023-03-01T05:18:39;22.50;78.20
54485;DHT22;45006;56.958;24.166;2023-03-01T05:21:08;22.50;78.20
54485;DHT22;45006;56.958;24.166;2023-03-01T05:23:36;22.50;78.40
54485;DHT22;45006;56.958;24.166;2023-03-01T05:26:05;22.50;78.70
54485;DHT22;45006;56.958;24.166;2023-03-01T05:28:36;22.50;78.80
54485;DHT22;45006;56.958;24.166;2023-03-01T05:31:05;22.50;78.90
54485;DHT22;45006;56.958;24.166;2023-03-01T05:33:40;22.60;78.90
54485;DHT22;45006;56.958;24.166;2023-03-01T05:36:08;22.50;78.90
54485;DHT22;45006;56.958;24.166;2023-03-01T05:38:36;22.60;79.00
54485;DHT22;45006;56.958;24.166;2023-03-01T05:41:03;22.60;79.10
54485;DHT22;45006;56.958;24.166;2023-03-01T05:43:31;22.60;79.20
54485;DHT22;45006;56.958;24.166;2023-03-01T05:46:00;22.60;79.10
54485;DHT22;45006;56.958;24.166;2023-03-01T05:48:27;22.60;79.10
54485;DHT22;45006;56.958;24.166;2023-03-01T05:50:59;22.60;79.30
54485;DHT22;45006;56.958;24.166;2023-03-01T05:53:31;22.60;79.30
54485;DHT22;45006;56.958;24.166;2023-03-01T05:55:58;22.60;79.70
54485;DHT22;45006;56.958;24.166;2023-03-01T05:58:25;22.60;79.50
54485;DHT22;45006;56.958;24.166;2023-03-01T06:00:52;22.60;79.60
54485;DHT22;45006;56.958;24.166;2023-03-01T06:03:21;22.60;79.80
54485;DHT22;45006;56.958;24.166;2023-03-01T06:05:48;22.60;79.90
54485;DHT22;45006;56.958;24.166;2023-03-01T06:08:16;22.60;79.90
54485;DHT22;45006;56.958;24.166;2023-03-01T06:10:43;22.60;79.90
54485;DHT22;45006;56.958;24.166;2023-03-01T06:13:10;22.60;80.00
54485;DHT22;45006;56.958;24.166;2023-03-01T06:15:37;22.60;80.00
54485;DHT22;45006;56.958;24.166;2023-03-01T06:18:05;22.60;80.10
54485;DHT22;45006;56.958;24.166;2023-03-01T06:20:32;22.60;80.10
54485;DHT22;45006;56.958;24.166;2023-03-01T06:23:00;22.60;80.20
54485;DHT22;45006;56.958;24.166;2023-03-01T06:25:28;22.60;80.40
54485;DHT22;45006;56.958;24.166;2023-03-01T06:27:56;22.60;80.60
54485;DHT22;45006;56.958;24.166;2023-03-01T06:30:24;22.60;80.70
54485;DHT22;45006;56.958;24.166;2023-03-01T06:32:52;22.60;80.90
54485;DHT22;45006;56.958;24.166;2023-03-01T06:35:19;22.60;80.90
54485;DHT22;45006;56.958;24.166;2023-03-01T06:37:47;22.60;81.20
54485;DHT22;45006;56.958;24.166;2023-03-01T06:40:15;22.60;81.10
54485;DHT22;45006;56.958;24.166;2023-03-01T06:42:48;22.60;81.20
54485;DHT22;45006;56.958;24.166;2023-03-01T06:45:17;22.60;81.40
54485;DHT22;45006;56.958;24.166;2023-03-01T06:47:44;22.60;81.40
54485;DHT22;45006;56.958;24.166;2023-03-01T06:50:12;22.60;81.40
54485;DHT22;45006;56.958;24.166;2023-03-01T06:52:39;22.60;81.60
54485;DHT22;45006;56.958;24.166;2023-03-01T06:55:06;22.70;81.60
54485;DHT22;45006;56.958;24.166;2023-03-01T06:57:33;22.60;81.70
54485;DHT22;45006;56.958;24.166;2023-03-01T07:00:01;22.70;81.80
54485;DHT22;45006;56.958;24.166;2023-03-01T07:02:28;22.70;82.00
54485;DHT22;45006;56.958;24.166;2023-03-01T07:04:55;22.70;81.80
54485;DHT22;45006;56.958;24.166;2023-03-01T07:07:22;22.60;81.80
54485;DHT22;45006;56.958;24.166;2023-03-01T07:09:49;22.70;82.10
54485;DHT22;45006;56.958;24.166;2023-03-01T07:12:16;22.60;82.20
54485;DHT22;45006;56.958;24.166;2023-03-01T07:14:44;22.70;82.60
54485;DHT22;45006;56.958;24.166;2023-03-01T07:17:11;22.60;82.60
54485;DHT22;45006;56.958;24.166;2023-03-01T07:19:38;22.60;82.70
54485;DHT22;45006;56.958;24.166;2023-03-01T07:22:05;22.70;82.80
54485;DHT22;45006;56.958;24.166;2023-03-01T07:24:34;22.60;82.90
54485;DHT22;45006;56.958;24.166;2023-03-01T07:27:01;22.70;83.30
54485;DHT22;45006;56.958;24.166;2023-03-01T07:29:29;22.70;83.70
54485;DHT22;45006;56.958;24.166;2023-03-01T07:31:56;22.70;83.80
54485;DHT22;45006;56.958;24.166;2023-03-01T07:34:23;22.70;84.10
54485;DHT22;45006;56.958;24.166;2023-03-01T07:36:50;22.70;84.70
54485;DHT22;45006;56.958;24.166;2023-03-01T07:39:16;22.70;84.90
54485;DHT22;45006;56.958;24.166;2023-03-01T07:41:45;22.70;81.00
54485;DHT22;45006;56.958;24.166;2023-03-01T07:44:12;22.70;79.30
54485;DHT22;45006;56.958;24.166;2023-03-01T07:46:39;22.60;79.20
54485;DHT22;45006;56.958;24.166;2023-03-01T07:49:06;22.60;79.70
54485;DHT22;45006;56.958;24.166;2023-03-01T07:51:33;22.60;81.30
54485;DHT22;45006;56.958;24.166;2023-03-01T07:54:00;22.60;82.10
54485;DHT22;45006;56.958;24.166;2023-03-01T07:56:27;22.60;82.40
54485;DHT22;45006;56.958;24.166;2023-03-01T07:58:54;22.60;82.40
54485;DHT22;45006;56.958;24.166;2023-03-01T08:01:21;22.60;82.50
54485;DHT22;45006;56.958;24.166;2023-03-01T08:03:48;22.60;82.50
54485;DHT22;45006;56.958;24.166;2023-03-01T08:06:18;22.60;82.30
54485;DHT22;45006;56.958;24.166;2023-03-01T08:08:45;22.70;82.10
54485;DHT22;45006;56.958;24.166;2023-03-01T08:11:13;22.70;81.90
54485;DHT22;45006;56.958;24.166;2023-03-01T08:13:41;22.60;81.90
54485;DHT22;45006;56.958;24.166;2023-03-01T08:16:12;22.60;81.90
54485;DHT22;45006;56.958;24.166;2023-03-01T08:18:39;22.70;81.60
54485;DHT22;45006;56.958;24.166;2023-03-01T08:21:09;22.70;80.40
54485;DHT22;45006;56.958;24.166;2023-03-01T08:23:37;22.70;79.50
54485;DHT22;45006;56.958;24.166;2023-03-01T08:26:24;22.60;79.80
54485;DHT22;45006;56.958;24.166;2023-03-01T08:28:51;22.60;79.90
54485;DHT22;45006;56.958;24.166;2023-03-01T08:31:30;22.60;79.70
54485;DHT22;45006;56.958;24.166;2023-03-01T08:34:00;22.60;80.10
54485;DHT22;45006;56.958;24.166;2023-03-01T08:36:30;22.60;80.20
54485;DHT22;45006;56.958;24.166;2023-03-01T08:38:59;22.60;79.70
54485;DHT22;45006;56.958;24.166;2023-03-01T08:41:29;22.60;79.90
54485;DHT22;45006;56.958;24.166;2023-03-01T08:43:56;22.60;79.30
54485;DHT22;45006;56.958;24.166;2023-03-01T08:46:31;22.60;78.90
54485;DHT22;45006;56.958;24.166;2023-03-01T08:48:58;22.60;79.60
54485;DHT22;45006;56.958;24.166;2023-03-01T08:51:26;22.60;79.20
54485;DHT22;45006;56.958;24.166;2023-03-01T08:53:53;22.60;79.80
54485;DHT22;45006;56.958;24.166;2023-03-01T08:56:20;22.60;79.40
54485;DHT22;45006;56.958;24.166;2023-03-01T08:58:48;22.60;79.20
54485;DHT22;45006;56.958;24.166;2023-03-01T09:01:17;22.60;79.60
54485;DHT22;45006;56.958;24.166;2023-03-01T09:03:46;22.60;79.50
54485;DHT22;45006;56.958;24.166;2023-03-01T09:06:13;22.70;80.30
54485;DHT22;45006;56.958;24.166;2023-03-01T09:08:43;22.70;79.80
54485;DHT22;45006;56.958;24.166;2023-03-01T09:11:12;22.60;79.80
54485;DHT22;45006;56.958;24.166;2023-03-01T09:13:39;22.60;80.00
54485;DHT22;45006;56.958;24.166;2023-03-01T09:16:11;22.60;80.60
54485;DHT22;45006;56.958;24.166;2023-03-01T09:18:39;22.70;80.30
54485;DHT22;45006;56.958;24.166;2023-03-01T09:21:16;22.70;80.50
54485;DHT22;45006;56.958;24.166;2023-03-01T09:23:50;22.70;80.30
54485;DHT22;45006;56.958;24.166;2023-03-01T09:26:22;22.60;79.90
54485;DHT22;45006;56.958;24.166;2023-03-01T09:28:51;22.60;79.80
54485;DHT22;45006;56.958;24.166;2023-03-01T09:31:20;22.70;79.30
54485;DHT22;45006;56.958;24.166;2023-03-01T09:33:51;22.60;79.60
54485;DHT22;45006;56.958;24.166;2023-03-01T09:36:21;22.60;79.70
54485;DHT22;45006;56.958;24.166;2023-03-01T09:38:48;22.60;79.30
54485;DHT22;45006;56.958;24.166;2023-03-01T09:41:46;22.60;79.20
54485;DHT22;45006;56.958;24.166;2023-03-01T09:44:31;22.60;79.40
54485;DHT22;45006;56.958;24.166;2023-03-01T09:47:02;22.60;79.40
54485;DHT22;45006;56.958;24.166;2023-03-01T09:49:33;22.60;80.10
54485;DHT22;45006;56.958;24.166;2023-03-01T09:52:28;22.60;79.80
54485;DHT22;45006;56.958;24.166;2023-03-01T09:54:56;22.60;79.00
54485;DHT22;45006;56.958;24.166;2023-03-01T09:57:33;22.60;78.10
54485;DHT22;45006;56.958;24.166;2023-03-01T10:08:24;22.60;79.30
54485;DHT22;45006;56.958;24.166;2023-03-01T10:10:53;22.60;79.00
54485;DHT22;45006;56.958;24.166;2023-03-01T10:16:14;22.60;79.20
54485;DHT22;45006;56.958;24.166;2023-03-01T10:18:46;22.60;79.60
54485;DHT22;45006;56.958;24.166;2023-03-01T10:21:17;22.60;79.90
54485;DHT22;45006;56.958;24.166;2023-03-01T10:23:46;22.60;80.10
54485;DHT22;45006;56.958;24.166;2023-03-01T10:26:40;22.60;80.10
54485;DHT22;45006;56.958;24.166;2023-03-01T10:29:12;22.60;80.20
54485;DHT22;45006;56.958;24.166;2023-03-01T10:31:42;22.60;80.10
54485;DHT22;45006;56.958;24.166;2023-03-01T10:34:28;22.60;80.20
54485;DHT22;45006;56.958;24.166;2023-03-01T10:37:17;22.60;80.30
54485;DHT22;45006;56.958;24.166;2023-03-01T10:40:05;22.60;80.50
54485;DHT22;45006;56.958;24.166;2023-03-01T10:42:48;22.60;80.30
54485;DHT22;45006;56.958;24.166;2023-03-01T10:50:48;22.60;80.40
54485;DHT22;45006;56.958;24.166;2023-03-01T10:53:40;22.60;80.10
54485;DHT22;45006;56.958;24.166;2023-03-01T10:56:10;22.60;80.30
54485;DHT22;45006;56.958;24.166;2023-03-01T10:58:56;22.60;80.30
54485;DHT22;45006;56.958;24.166;2023-03-01T11:01:27;22.60;80.40
54485;DHT22;45006;56.958;24.166;2023-03-01T11:06:34;22.60;80.50
54485;DHT22;45006;56.958;24.166;2023-03-01T11:11:40;22.60;80.30
54485;DHT22;45006;56.958;24.166;2023-03-01T11:14:17;22.60;80.40
54485;DHT22;45006;56.958;24.166;2023-03-01T11:17:13;22.60;80.20
54485;DHT22;45006;56.958;24.166;2023-03-01T11:20:00;22.60;80.00
54485;DHT22;45006;56.958;24.166;2023-03-01T11:22:28;22.60;80.00
54485;DHT22;45006;56.958;24.166;2023-03-01T11:24:57;22.60;80.00
54485;DHT22;45006;56.958;24.166;2023-03-01T11:27:43;22.60;79.90
54485;DHT22;45006;56.958;24.166;2023-03-01T11:38:39;22.60;79.90
54485;DHT22;45006;56.958;24.166;2023-03-01T11:41:15;22.60;79.70
54485;DHT22;45006;56.958;24.166;2023-03-01T11:54:41;22.60;79.50
54485;DHT22;45006;56.958;24.166;2023-03-01T12:00:23;22.60;80.00
54485;DHT22;45006;56.958;24.166;2023-03-01T12:11:41;22.60;79.60
54485;DHT22;45006;56.958;24.166;2023-03-01T12:17:44;22.60;79.40
54485;DHT22;45006;56.958;24.166;2023-03-01T12:28:50;22.60;79.00
54485;DHT22;45006;56.958;24.166;2023-03-01T12:50:54;22.60;78.70
54485;DHT22;45006;56.958;24.166;2023-03-01T12:53:24;22.60;78.50
54485;DHT22;45006;56.958;24.166;2023-03-01T12:55:54;22.60;78.70
54485;DHT22;45006;56.958;24.166;2023-03-01T13:04:45;22.60;78.50
54485;DHT22;45006;56.958;24.166;2023-03-01T13:15:30;22.60;77.40
54485;DHT22;45006;56.958;24.166;2023-03-01T13:26:16;22.60;76.90
54485;DHT22;45006;56.958;24.166;2023-03-01T13:33:47;22.60;76.60
54485;DHT22;45006;56.958;24.166;2023-03-01T13:39:39;22.60;76.40
54485;DHT22;45006;56.958;24.166;2023-03-01T13:42:02;22.60;76.50
54485;DHT22;45006;56.958;24.166;2023-03-01T13:44:34;22.60;76.40
54485;DHT22;45006;56.958;24.166;2023-03-01T13:52:50;22.60;76.40
54485;DHT22;45006;56.958;24.166;2023-03-01T13:58:25;22.60;76.40
54485;DHT22;45006;56.958;24.166;2023-03-01T14:01:02;22.60;76.30
54485;DHT22;45006;56.958;24.166;2023-03-01T14:03:31;22.60;76.90
54485;DHT22;45006;56.958;24.166;2023-03-01T14:06:23;22.60;77.80
54485;DHT22;45006;56.958;24.166;2023-03-01T14:09:27;22.60;78.20
54485;DHT22;45006;56.958;24.166;2023-03-01T14:12:22;22.50;77.00
54485;DHT22;45006;56.958;24.166;2023-03-01T14:17:52;22.60;73.60
54485;DHT22;45006;56.958;24.166;2023-03-01T14:20:27;22.60;72.50
54485;DHT22;45006;56.958;24.166;2023-03-01T14:22:59;22.60;71.90
54485;DHT22;45006;56.958;24.166;2023-03-01T14:25:31;22.70;71.60
54485;DHT22;45006;56.958;24.166;2023-03-01T14:30:45;22.70;70.70
54485;DHT22;45006;56.958;24.166;2023-03-01T14:33:31;22.70;70.70
54485;DHT22;45006;56.958;24.166;2023-03-01T14:36:09;22.70;70.30
54485;DHT22;45006;56.958;24.166;2023-03-01T14:38:39;22.70;69.80
54485;DHT22;45006;56.958;24.166;2023-03-01T14:41:27;22.80;70.10
54485;DHT22;45006;56.958;24.166;2023-03-01T14:43:55;22.80;70.00
54485;DHT22;45006;56.958;24.166;2023-03-01T14:46:32;22.80;70.30
54485;DHT22;45006;56.958;24.166;2023-03-01T14:51:39;22.80;70.10
54485;DHT22;45006;56.958;24.166;2023-03-01T14:54:28;22.80;70.10
54485;DHT22;45006;56.958;24.166;2023-03-01T14:57:00;22.80;69.80
54485;DHT22;45006;56.958;24.166;2023-03-01T14:59:27;22.90;69.90
54485;DHT22;45006;56.958;24.166;2023-03-01T15:01:57;22.90;69.40
54485;DHT22;45006;56.958;24.166;2023-03-01T15:04:25;22.90;69.30
54485;DHT22;45006;56.958;24.166;2023-03-01T15:06:55;22.90;69.40
54485;DHT22;45006;56.958;24.166;2023-03-01T15:09:23;23.00;69.40
54485;DHT22;45006;56.958;24.166;2023-03-01T15:11:50;22.90;68.90
54485;DHT22;45006;56.958;24.166;2023-03-01T15:14:26;23.00;69.00
54485;DHT22;45006;56.958;24.166;2023-03-01T15:16:55;23.00;69.70
54485;DHT22;45006;56.958;24.166;2023-03-01T15:19:23;23.00;68.90
54485;DHT22;45006;56.958;24.166;2023-03-01T15:21:55;23.00;68.80
54485;DHT22;45006;56.958;24.166;2023-03-01T15:24:25;23.00;68.50
54485;DHT22;45006;56.958;24.166;2023-03-01T15:26:58;23.00;68.50
54485;DHT22;45006;56.958;24.166;2023-03-01T15:29:30;23.00;68.50
54485;DHT22;45006;56.958;24.166;2023-03-01T15:32:05;23.00;68.20
54485;DHT22;45006;56.958;24.166;2023-03-01T15:34:36;23.00;68.10
54485;DHT22;45006;56.958;24.166;2023-03-01T15:37:06;23.00;68.00
54485;DHT22;45006;56.958;24.166;2023-03-01T15:39:41;23.00;68.00
54485;DHT22;45006;56.958;24.166;2023-03-01T15:47:50;23.00;68.30
54485;DHT22;45006;56.958;24.166;2023-03-01T15:50:28;23.00;68.10
54485;DHT22;45006;56.958;24.166;2023-03-01T15:52:58;23.00;67.70
54485;DHT22;45006;56.958;24.166;2023-03-01T15:55:29;23.00;67.30
54485;DHT22;45006;56.958;24.166;2023-03-01T15:58:04;23.10;67.40
54485;DHT22;45006;56.958;24.166;2023-03-01T16:00:33;23.00;67.40
54485;DHT22;45006;56.958;24.166;2023-03-01T16:03:00;23.00;67.30
54485;DHT22;45006;56.958;24.166;2023-03-01T16:05:30;23.00;67.00
54485;DHT22;45006;56.958;24.166;2023-03-01T16:07:59;23.10;67.10
54485;DHT22;45006;56.958;24.166;2023-03-01T16:10:27;23.10;67.00
54485;DHT22;45006;56.958;24.166;2023-03-01T16:12:55;23.10;67.10
54485;DHT22;45006;56.958;24.166;2023-03-01T16:15:29;23.10;67.10
54485;DHT22;45006;56.958;24.166;2023-03-01T16:17:58;23.10;67.00
54485;DHT22;45006;56.958;24.166;2023-03-01T16:20:26;23.10;67.60
54485;DHT22;45006;56.958;24.166;2023-03-01T16:23:05;23.10;66.80
54485;DHT22;45006;56.958;24.166;2023-03-01T16:25:32;23.10;66.80
54485;DHT22;45006;56.958;24.166;2023-03-01T16:28:00;23.10;66.90
54485;DHT22;45006;56.958;24.166;2023-03-01T16:30:31;23.10;66.90
54485;DHT22;45006;56.958;24.166;2023-03-01T16:33:02;23.10;67.20
54485;DHT22;45006;56.958;24.166;2023-03-01T16:35:50;23.10;67.80
54485;DHT22;45006;56.958;24.166;2023-03-01T16:38:18;23.10;68.60
54485;DHT22;45006;56.958;24.166;2023-03-01T16:40:49;23.00;68.90
54485;DHT22;45006;56.958;24.166;2023-03-01T16:43:16;23.00;71.90
54485;DHT22;45006;56.958;24.166;2023-03-01T16:45:43;23.00;72.40
54485;DHT22;45006;56.958;24.166;2023-03-01T16:48:12;23.00;72.70
54485;DHT22;45006;56.958;24.166;2023-03-01T16:50:39;23.00;73.10
54485;DHT22;45006;56.958;24.166;2023-03-01T16:53:07;22.90;73.00
54485;DHT22;45006;56.958;24.166;2023-03-01T16:55:34;22.90;73.40
54485;DHT22;45006;56.958;24.166;2023-03-01T16:58:01;22.90;74.30
54485;DHT22;45006;56.958;24.166;2023-03-01T17:00:28;22.90;74.90
54485;DHT22;45006;56.958;24.166;2023-03-01T17:02:56;22.90;74.80
54485;DHT22;45006;56.958;24.166;2023-03-01T17:05:24;22.80;75.00
54485;DHT22;45006;56.958;24.166;2023-03-01T17:07:52;22.80;75.20
54485;DHT22;45006;56.958;24.166;2023-03-01T17:10:22;22.80;75.40
54485;DHT22;45006;56.958;24.166;2023-03-01T17:12:49;22.80;75.50
54485;DHT22;45006;56.958;24.166;2023-03-01T17:15:17;22.80;75.50
54485;DHT22;45006;56.958;24.166;2023-03-01T17:17:43;22.80;75.80
54485;DHT22;45006;56.958;24.166;2023-03-01T17:20:11;22.70;75.80
54485;DHT22;45006;56.958;24.166;2023-03-01T17:22:38;22.70;76.10
54485;DHT22;45006;56.958;24.166;2023-03-01T17:25:08;22.70;76.20
54485;DHT22;45006;56.958;24.166;2023-03-01T17:27:37;22.70;76.60
54485;DHT22;45006;56.958;24.166;2023-03-01T17:30:06;22.70;76.60
54485;DHT22;45006;56.958;24.166;2023-03-01T17:32:33;22.70;77.00
54485;DHT22;45006;56.958;24.166;2023-03-01T17:35:02;22.70;76.50
54485;DHT22;45006;56.958;24.166;2023-03-01T17:37:31;22.70;77.00
54485;DHT22;45006;56.958;24.166;2023-03-01T17:39:59;22.60;77.00
54485;DHT22;45006;56.958;24.166;2023-03-01T17:42:26;22.60;77.00
54485;DHT22;45006;56.958;24.166;2023-03-01T17:44:53;22.60;77.40
54485;DHT22;45006;56.958;24.166;2023-03-01T17:47:20;22.60;77.50
54485;DHT22;45006;56.958;24.166;2023-03-01T17:49:49;22.60;77.90
54485;DHT22;45006;56.958;24.166;2023-03-01T17:52:18;22.60;78.20
54485;DHT22;45006;56.958;24.166;2023-03-01T17:54:49;22.60;78.30
54485;DHT22;45006;56.958;24.166;2023-03-01T17:57:17;22.60;78.30
54485;DHT22;45006;56.958;24.166;2023-03-01T17:59:46;22.60;78.50
54485;DHT22;45006;56.958;24.166;2023-03-01T18:02:13;22.60;78.40
54485;DHT22;45006;56.958;24.166;2023-03-01T18:04:40;22.60;78.40
54485;DHT22;45006;56.958;24.166;2023-03-01T18:07:07;22.60;78.60
54485;DHT22;45006;56.958;24.166;2023-03-01T18:09:34;22.50;79.00